AirNav   Air Wisconsin pilot careers
 
 643 users online  

M72 New Albany-Union County Airport
New Albany, Mississippi, USA

GOING TO NEW ALBANY?


FAA INFORMATION EFFECTIVE 29 MARCH 2018

Location

FAA Identifier: M72
Lat/Long: 34-32-56.4350N / 089-01-27.9700W
34-32.940583N / 089-01.466167W
34.5490097 / -89.0244361
(estimated)
Elevation: 412.7 ft. / 125.8 m (surveyed)
Variation: 01W (2005)
From city: 3 miles N of NEW ALBANY, MS
Time zone: UTC -5 (UTC -6 during Standard Time)
Zip code: 38652

Airport Operations

Airport use: Open to the public
Activation date: 01/1963
Control tower: no
ARTCC: MEMPHIS CENTER
FSS: GREENWOOD FLIGHT SERVICE STATION
NOTAMs facility: GWO (NOTAM-D service available)
Attendance: MON-FRI DAYLIGHT HOURS
Wind indicator: lighted
Segmented circle: no
Lights: MIRL RY 18/36 OPR DUSK-2200. AFTER 2200 CTAF.
Beacon: white-green (lighted land airport)
Operates sunset to sunrise.

Airport Communications

CTAF/UNICOM: 122.8
  • APCH/DEP SVC PVDD BY MEMPHIS ARTCC ON FREQS 135.9/273.55 (TUPELO RCAG).

Nearby radio navigation aids

VOR radial/distance  VOR name  Freq  Var
OTBr326/22.5TUPELO VOR/DME109.8004E
HLIr117/26.8HOLLY SPRINGS VORTAC112.4003E

Airport Services

Fuel available: 100LL
FUEL 24 HR CREDIT CARD SVC AVBL.
Parking: hangars and tiedowns
Bottled oxygen: NONE
Bulk oxygen: NONE

Runway Information

Runway 18/36

Dimensions: 3903 x 75 ft. / 1190 x 23 m
Surface: asphalt, in good condition
Weight bearing capacity: 
Single wheel: 20.0
Runway edge lights: medium intensity
RUNWAY 18  RUNWAY 36
Latitude: 34-33.261667N34-32.619500N
Longitude: 089-01.490000W089-01.442333W
Elevation: 409.0 ft.405.9 ft.
Gradient: 0.2%0.2%
Traffic pattern: leftleft
Runway heading: 177 magnetic, 176 true357 magnetic, 356 true
Markings: nonprecision, in good conditionnonprecision, in good condition
Touchdown point: yes, no lightsyes, no lights
Obstructions: 64 ft. trees, 1952 ft. from runway, 28 ft. right of centerline, 27:1 slope to clear78 ft. trees, 2436 ft. from runway, 28:1 slope to clear

Airport Ownership and Management from official FAA records

Ownership: Publicly-owned
Owner: NEW ALBANY CITY & UNION COUNTY
P.O. BOX 56
NEW ALBANY, MS 38652
Phone 662-534-1010
Manager: RUDY DIXON
1034 COUNTY ROAD 80
NEW ALBANY, MS 38652
Phone 662-534-1050

Airport Operational Statistics

Aircraft based on the field: 21
Single engine airplanes: 18
Gliders airplanes: 1
Ultralights: 2
    
Aircraft operations: avg 34/day *
52% transient general aviation
27% military
21% local general aviation
* for 12-month period ending 08 November 2017

Additional Remarks

COURTESY CAR AVBL.

Instrument Procedures

NOTE: All procedures below are presented as PDF files. If you need a reader for these files, you should download the free Adobe Reader.

NOT FOR NAVIGATION. Please procure official charts for flight.
FAA instrument procedures published for use from 29 March 2018 at 0901Z to 26 April 2018 at 0900Z.

 
IAPs - Instrument Approach Procedures
RNAV (GPS) RWY 18   download (170KB)
RNAV (GPS) RWY 36   download (185KB)
NOTE: Special Take-Off Minimums/Departure Procedures apply   download (116KB)

Other nearby airports with instrument procedures:

25M - Ripley Airport (10 nm N)
8M1 - Booneville/Baldwyn Airport (19 nm E)
KTUP - Tupelo Regional Airport (21 nm SE)
KUOX - University-Oxford Airport (27 nm W)
M41 - Holly Springs-Marshall County Airport (29 nm NW)
 
Loc | Ops | Rwys | IFR | FBO | Links
Com | Nav | Svcs | Stats | Notes

AirNav Hotels Sweepstakes
 
Area around M72 (New Albany-Union County Airport)
 
Road maps at: MapQuest Bing Google
 
Aerial photo
WARNING: Photo may not be current or correct
Aerial photo of M72 (New Albany-Union County Airport)
Photo by Denny Young CFI
Photo taken 07-Oct-2007
looking north

Do you have a better or more recent aerial photo of New Albany-Union County Airport that you would like to share? If so, please send us your photo.

 
Sectional chart

 
Airport distance calculator
Flying to New Albany-Union County Airport? Find the distance to fly.

From to M72

Sunrise and sunset
Times for 25-Apr-2018
 Local
(UTC-5)
 Zulu
(UTC)
Morning civil twilight05:4710:47
Sunrise06:1411:14
Sunset19:3500:35
Evening civil twilight20:0101:01

Current date and time
Zulu (UTC)  26-Apr-2018 04:44:49
Local (UTC-5)  25-Apr-2018 23:44:49
 
METAR
KTUP 
21nm SE 
260353Z AUTO 01006KT 10SM OVC095 15/11 A2991 RMK AO2 RAB15E37 SLP125 P0000 T01500111 $
KUOX 
27nm W 
260435Z AUTO 08005KT 8SM -DZ OVC065 13/11 A2991 RMK AO2
KCRX 
30nm NE 
260435Z AUTO 00000KT 10SM -DZ BKN060 BKN070 OVC085 14/13 A2992 RMK AO2
KM08 
40nm N 
260435Z AUTO 00000KT 10SM BKN075 OVC095 12/12 A2992 RMK A01
TAF
KTUP 
21nm SE 
251730Z 2518/2618 32005KT P6SM FEW250 FM252100 32007KT P6SM BKN150 BKN250 FM260000 VRB04KT P6SM BKN060 OVC150 FM260400 VRB04KT P6SM VCSH FEW035 OVC060 TEMPO 2604/2606 -RA BKN035 FM260600 10005KT 5SM RA BR BKN009 OVC015 FM260900 04010KT 5SM RA BR BKN009 OVC015 FM261400 31012KT 6SM -RA BR OVC009
NOTAMs
Click for the latest NOTAMs
NOTAMs are issued by the DoD/FAA and will open in a separate window not controlled by AirNav.

 

 
 

FBO, Fuel Providers, and Aircraft Ground Support

  
 Business Name 
 
 Contact 
 
 Services / Description 
 
Fuel Prices
 
Comments
  
New Albany/Union County Airport 662-534-1050
no information available

If you are affiliated with New Albany/Union County Airport and would like to show here your services, contact info, web link, logo, and more, click here
100LL
SS $4.00 
 Updated 12-Apr-2018
 
   2 read write
SS=Self service
Update Fuel Prices
 

Would you like to see your business listed on this page?

 If your business provides an interesting product or service to pilots, flight crews, aircraft, or users of the New Albany-Union County Airport, you should consider listing it here.  To start the listing process, click on the button below
 
Add a business
 

Other Pages about New Albany-Union County Airport

Update a link
 
Copyright © AirNav, LLC. All rights reserved. Privacy Policy  Contact